sensor_id;sensor_type;location;lat;lon;timestamp;pressure;altitude;pressure_sealevel;temperature;humidity
7333;BME280;3707;43.618;25.342;2022-09-09T00:00:25;100124.13;;;24.12;56.18
7333;BME280;3707;43.618;25.342;2022-09-09T00:03:00;100117.84;;;24.16;55.84
7333;BME280;3707;43.618;25.342;2022-09-09T00:05:33;100118.69;;;24.16;56.10
7333;BME280;3707;43.618;25.342;2022-09-09T00:08:04;100112.00;;;24.06;56.50
7333;BME280;3707;43.618;25.342;2022-09-09T00:10:33;100105.09;;;24.02;56.63
7333;BME280;3707;43.618;25.342;2022-09-09T00:13:06;100094.50;;;24.02;56.19
7333;BME280;3707;43.618;25.342;2022-09-09T00:15:49;100093.47;;;24.06;56.99
7333;BME280;3707;43.618;25.342;2022-09-09T00:18:25;100099.69;;;24.05;57.08
7333;BME280;3707;43.618;25.342;2022-09-09T00:20:59;100100.72;;;24.01;57.42
7333;BME280;3707;43.618;25.342;2022-09-09T00:23:29;100094.63;;;23.99;57.05
7333;BME280;3707;43.618;25.342;2022-09-09T00:26:03;100089.34;;;23.99;56.83
7333;BME280;3707;43.618;25.342;2022-09-09T00:28:36;100089.81;;;23.87;57.75
7333;BME280;3707;43.618;25.342;2022-09-09T00:31:11;100097.94;;;24.04;57.67
7333;BME280;3707;43.618;25.342;2022-09-09T00:33:39;100092.03;;;23.98;57.43
7333;BME280;3707;43.618;25.342;2022-09-09T00:36:13;100085.38;;;24.09;57.27
7333;BME280;3707;43.618;25.342;2022-09-09T00:38:43;100088.97;;;24.08;57.45
7333;BME280;3707;43.618;25.342;2022-09-09T00:41:14;100078.75;;;23.99;57.84
7333;BME280;3707;43.618;25.342;2022-09-09T00:43:47;100098.31;;;23.95;58.07
7333;BME280;3707;43.618;25.342;2022-09-09T00:46:48;100100.53;;;24.06;57.70
7333;BME280;3707;43.618;25.342;2022-09-09T00:49:26;100068.75;;;23.84;57.96
7333;BME280;3707;43.618;25.342;2022-09-09T00:52:10;100086.13;;;23.91;58.96
7333;BME280;3707;43.618;25.342;2022-09-09T00:54:46;100087.97;;;23.89;58.67
7333;BME280;3707;43.618;25.342;2022-09-09T00:57:25;100078.88;;;23.96;58.38
7333;BME280;3707;43.618;25.342;2022-09-09T01:00:02;100092.28;;;23.92;58.52
7333;BME280;3707;43.618;25.342;2022-09-09T01:02:37;100103.38;;;24.01;58.16
7333;BME280;3707;43.618;25.342;2022-09-09T01:05:12;100112.56;;;23.93;59.05
7333;BME280;3707;43.618;25.342;2022-09-09T01:07:44;100091.66;;;23.85;59.43
7333;BME280;3707;43.618;25.342;2022-09-09T01:10:23;100099.34;;;23.91;59.66
7333;BME280;3707;43.618;25.342;2022-09-09T01:12:53;100102.59;;;23.76;60.38
7333;BME280;3707;43.618;25.342;2022-09-09T01:15:26;100102.59;;;23.76;60.43
7333;BME280;3707;43.618;25.342;2022-09-09T01:18:00;100103.66;;;23.72;60.20
7333;BME280;3707;43.618;25.342;2022-09-09T01:20:35;100090.44;;;23.72;60.29
7333;BME280;3707;43.618;25.342;2022-09-09T01:23:30;100100.78;;;23.78;60.47
7333;BME280;3707;43.618;25.342;2022-09-09T01:26:15;100078.44;;;23.62;60.50
7333;BME280;3707;43.618;25.342;2022-09-09T01:28:46;100085.31;;;23.67;60.94
7333;BME280;3707;43.618;25.342;2022-09-09T01:31:17;100081.28;;;23.57;61.38
7333;BME280;3707;43.618;25.342;2022-09-09T01:33:44;100076.94;;;23.55;61.75
7333;BME280;3707;43.618;25.342;2022-09-09T01:36:13;100060.44;;;23.48;61.89
7333;BME280;3707;43.618;25.342;2022-09-09T01:38:41;100075.16;;;23.55;61.55
7333;BME280;3707;43.618;25.342;2022-09-09T01:41:08;100071.84;;;23.50;62.09
7333;BME280;3707;43.618;25.342;2022-09-09T01:43:37;100076.63;;;23.64;61.69
7333;BME280;3707;43.618;25.342;2022-09-09T01:46:04;100077.88;;;23.54;62.18
7333;BME280;3707;43.618;25.342;2022-09-09T01:48:32;100061.19;;;23.52;61.88
7333;BME280;3707;43.618;25.342;2022-09-09T01:50:59;100060.69;;;23.41;61.94
7333;BME280;3707;43.618;25.342;2022-09-09T01:53:26;100016.75;;;23.13;61.98
7333;BME280;3707;43.618;25.342;2022-09-09T01:55:59;100084.84;;;23.56;62.04
7333;BME280;3707;43.618;25.342;2022-09-09T01:58:34;100078.88;;;23.73;61.47
7333;BME280;3707;43.618;25.342;2022-09-09T02:01:12;100083.94;;;23.57;62.02
7333;BME280;3707;43.618;25.342;2022-09-09T02:03:44;100091.59;;;23.65;62.03
7333;BME280;3707;43.618;25.342;2022-09-09T02:06:21;100085.59;;;23.60;62.40
7333;BME280;3707;43.618;25.342;2022-09-09T02:08:55;100085.91;;;23.51;63.41
7333;BME280;3707;43.618;25.342;2022-09-09T02:11:23;100089.38;;;23.53;62.59
7333;BME280;3707;43.618;25.342;2022-09-09T02:13:53;100085.59;;;23.60;62.60
7333;BME280;3707;43.618;25.342;2022-09-09T02:16:25;100090.63;;;23.66;62.36
7333;BME280;3707;43.618;25.342;2022-09-09T02:18:57;100083.63;;;23.65;62.72
7333;BME280;3707;43.618;25.342;2022-09-09T02:21:28;100075.25;;;23.54;62.65
7333;BME280;3707;43.618;25.342;2022-09-09T02:23:58;100090.25;;;23.53;63.14
7333;BME280;3707;43.618;25.342;2022-09-09T02:26:31;100083.97;;;23.56;62.33
7333;BME280;3707;43.618;25.342;2022-09-09T02:29:01;100083.97;;;23.56;63.07
7333;BME280;3707;43.618;25.342;2022-09-09T02:31:32;100073.56;;;23.51;63.44
7333;BME280;3707;43.618;25.342;2022-09-09T02:34:03;100075.13;;;23.57;63.44
7333;BME280;3707;43.618;25.342;2022-09-09T02:36:33;100066.59;;;23.49;64.17
7333;BME280;3707;43.618;25.342;2022-09-09T02:39:02;100059.06;;;23.37;64.58
7333;BME280;3707;43.618;25.342;2022-09-09T02:41:33;100056.44;;;23.37;63.67
7333;BME280;3707;43.618;25.342;2022-09-09T02:44:00;100071.56;;;23.33;64.26
7333;BME280;3707;43.618;25.342;2022-09-09T02:46:37;100079.94;;;23.46;64.13
7333;BME280;3707;43.618;25.342;2022-09-09T02:49:10;100064.88;;;23.48;63.75
7333;BME280;3707;43.618;25.342;2022-09-09T02:51:45;100066.88;;;23.41;64.47
7333;BME280;3707;43.618;25.342;2022-09-09T02:54:22;100074.81;;;23.41;64.58
7333;BME280;3707;43.618;25.342;2022-09-09T02:56:53;100075.94;;;23.34;64.31
7333;BME280;3707;43.618;25.342;2022-09-09T02:59:22;100067.13;;;23.34;64.57
7333;BME280;3707;43.618;25.342;2022-09-09T03:01:52;100068.88;;;23.35;64.46
7333;BME280;3707;43.618;25.342;2022-09-09T03:04:19;100069.31;;;23.22;65.04
7333;BME280;3707;43.618;25.342;2022-09-09T03:06:46;100065.09;;;23.18;64.84
7333;BME280;3707;43.618;25.342;2022-09-09T03:09:13;100034.56;;;23.08;64.97
7333;BME280;3707;43.618;25.342;2022-09-09T03:11:40;100067.72;;;23.18;65.54
7333;BME280;3707;43.618;25.342;2022-09-09T03:14:07;100065.16;;;23.15;65.26
7333;BME280;3707;43.618;25.342;2022-09-09T03:16:33;100070.13;;;23.25;65.25
7333;BME280;3707;43.618;25.342;2022-09-09T03:19:02;100070.06;;;23.26;65.59
7333;BME280;3707;43.618;25.342;2022-09-09T03:21:28;100064.50;;;23.10;66.14
7333;BME280;3707;43.618;25.342;2022-09-09T03:23:55;100073.84;;;23.19;65.56
7333;BME280;3707;43.618;25.342;2022-09-09T03:26:22;100067.72;;;23.18;65.14
7333;BME280;3707;43.618;25.342;2022-09-09T03:28:49;100063.94;;;23.26;65.76
7333;BME280;3707;43.618;25.342;2022-09-09T03:31:17;100066.22;;;23.35;65.15
7333;BME280;3707;43.618;25.342;2022-09-09T03:33:44;100031.91;;;23.08;65.57
7333;BME280;3707;43.618;25.342;2022-09-09T03:36:13;100057.06;;;23.20;65.55
7333;BME280;3707;43.618;25.342;2022-09-09T03:38:40;100074.72;;;23.19;65.00
7333;BME280;3707;43.618;25.342;2022-09-09T03:41:07;100038.69;;;22.92;65.69
7333;BME280;3707;43.618;25.342;2022-09-09T03:43:34;100074.72;;;23.19;65.19
7333;BME280;3707;43.618;25.342;2022-09-09T03:46:01;100076.28;;;23.25;65.21
7333;BME280;3707;43.618;25.342;2022-09-09T03:48:28;100049.41;;;23.12;65.58
7333;BME280;3707;43.618;25.342;2022-09-09T03:50:55;100073.47;;;23.30;64.55
7333;BME280;3707;43.618;25.342;2022-09-09T03:53:24;100072.44;;;23.34;64.80
7333;BME280;3707;43.618;25.342;2022-09-09T03:55:53;100089.13;;;23.36;64.68
7333;BME280;3707;43.618;25.342;2022-09-09T03:58:21;100082.81;;;23.40;63.99
7333;BME280;3707;43.618;25.342;2022-09-09T04:00:59;100082.59;;;23.46;64.70
7333;BME280;3707;43.618;25.342;2022-09-09T04:03:27;100086.13;;;23.46;64.33
7333;BME280;3707;43.618;25.342;2022-09-09T04:05:56;100085.84;;;23.54;63.92
7333;BME280;3707;43.618;25.342;2022-09-09T04:08:25;100083.63;;;23.65;63.63
7333;BME280;3707;43.618;25.342;2022-09-09T04:10:52;100091.00;;;23.57;62.99
7333;BME280;3707;43.618;25.342;2022-09-09T04:13:22;100091.75;;;23.60;62.90
7333;BME280;3707;43.618;25.342;2022-09-09T04:15:51;100104.47;;;23.74;62.95
7333;BME280;3707;43.618;25.342;2022-09-09T04:18:18;100093.25;;;23.67;62.61
7333;BME280;3707;43.618;25.342;2022-09-09T04:20:46;100069.53;;;23.64;62.73
7333;BME280;3707;43.618;25.342;2022-09-09T04:23:13;100086.25;;;23.88;61.96
7333;BME280;3707;43.618;25.342;2022-09-09T04:25:45;100070.81;;;23.76;61.46
7333;BME280;3707;43.618;25.342;2022-09-09T04:28:12;100081.31;;;23.79;62.01
7333;BME280;3707;43.618;25.342;2022-09-09T04:30:39;100077.75;;;24.02;61.78
7333;BME280;3707;43.618;25.342;2022-09-09T04:33:06;100094.78;;;24.40;60.23
7333;BME280;3707;43.618;25.342;2022-09-09T04:35:33;100092.28;;;24.57;59.63
7333;BME280;3707;43.618;25.342;2022-09-09T04:38:00;100099.69;;;25.11;57.66
7333;BME280;3707;43.618;25.342;2022-09-09T04:40:28;100052.50;;;25.17;56.65
7333;BME280;3707;43.618;25.342;2022-09-09T04:42:57;100109.72;;;25.82;54.56
7333;BME280;3707;43.618;25.342;2022-09-09T04:45:24;100110.84;;;25.95;54.70
7333;BME280;3707;43.618;25.342;2022-09-09T04:47:51;100086.94;;;26.14;53.58
7333;BME280;3707;43.618;25.342;2022-09-09T04:50:18;100101.00;;;26.52;52.71
7333;BME280;3707;43.618;25.342;2022-09-09T04:52:45;100107.41;;;26.65;51.96
7333;BME280;3707;43.618;25.342;2022-09-09T04:55:12;100099.91;;;26.56;52.17
7333;BME280;3707;43.618;25.342;2022-09-09T04:57:39;100091.22;;;26.52;51.90
7333;BME280;3707;43.618;25.342;2022-09-09T05:00:09;100105.97;;;27.11;51.00
7333;BME280;3707;43.618;25.342;2022-09-09T05:02:37;100109.59;;;26.93;51.33
7333;BME280;3707;43.618;25.342;2022-09-09T05:05:04;100112.84;;;27.15;50.14
7333;BME280;3707;43.618;25.342;2022-09-09T05:07:32;100090.38;;;27.21;49.75
7333;BME280;3707;43.618;25.342;2022-09-09T05:09:58;100095.25;;;26.61;51.67
7333;BME280;3707;43.618;25.342;2022-09-09T05:12:25;100104.47;;;26.54;52.34
7333;BME280;3707;43.618;25.342;2022-09-09T05:14:52;100102.25;;;26.62;52.17
7333;BME280;3707;43.618;25.342;2022-09-09T05:17:21;100103.09;;;26.09;53.11
7333;BME280;3707;43.618;25.342;2022-09-09T05:19:47;100088.16;;;25.70;54.01
7333;BME280;3707;43.618;25.342;2022-09-09T05:22:18;100021.59;;;25.16;54.50
7333;BME280;3707;43.618;25.342;2022-09-09T05:24:45;100095.75;;;25.40;55.40
7333;BME280;3707;43.618;25.342;2022-09-09T05:27:12;100086.16;;;25.17;56.27
7333;BME280;3707;43.618;25.342;2022-09-09T05:29:39;100082.03;;;25.49;55.61
7333;BME280;3707;43.618;25.342;2022-09-09T05:32:08;100081.91;;;25.52;56.15
7333;BME280;3707;43.618;25.342;2022-09-09T05:34:36;100082.59;;;25.37;57.10
7333;BME280;3707;43.618;25.342;2022-09-09T05:37:04;100080.41;;;25.46;56.50
7333;BME280;3707;43.618;25.342;2022-09-09T05:39:33;100081.50;;;25.41;56.66
7333;BME280;3707;43.618;25.342;2022-09-09T05:42:01;100061.81;;;25.46;56.25
7333;BME280;3707;43.618;25.342;2022-09-09T05:44:30;100083.75;;;25.50;56.20
7333;BME280;3707;43.618;25.342;2022-09-09T05:46:57;100073.41;;;25.64;56.64
7333;BME280;3707;43.618;25.342;2022-09-09T05:49:24;100063.47;;;25.86;56.40
7333;BME280;3707;43.618;25.342;2022-09-09T05:51:52;100058.72;;;25.93;55.54
7333;BME280;3707;43.618;25.342;2022-09-09T05:54:19;100065.38;;;26.01;56.49
7333;BME280;3707;43.618;25.342;2022-09-09T05:56:46;100060.56;;;26.09;55.60
7333;BME280;3707;43.618;25.342;2022-09-09T05:59:15;100060.56;;;26.09;55.46
7333;BME280;3707;43.618;25.342;2022-09-09T06:01:42;100060.56;;;26.28;54.46
7333;BME280;3707;43.618;25.342;2022-09-09T06:04:09;100038.06;;;26.17;55.37
7333;BME280;3707;43.618;25.342;2022-09-09T06:06:37;100021.97;;;26.20;55.26
7333;BME280;3707;43.618;25.342;2022-09-09T06:09:08;100077.31;;;26.65;55.82
7333;BME280;3707;43.618;25.342;2022-09-09T06:11:36;100078.78;;;26.70;54.52
7333;BME280;3707;43.618;25.342;2022-09-09T06:14:03;100077.38;;;26.63;54.14
7333;BME280;3707;43.618;25.342;2022-09-09T06:16:31;100086.00;;;26.68;54.99
7333;BME280;3707;43.618;25.342;2022-09-09T06:18:59;100082.94;;;26.76;54.28
7333;BME280;3707;43.618;25.342;2022-09-09T06:21:27;100082.56;;;27.00;53.58
7333;BME280;3707;43.618;25.342;2022-09-09T06:23:55;100077.09;;;27.03;53.72
7333;BME280;3707;43.618;25.342;2022-09-09T06:26:25;100079.56;;;27.24;53.35
7333;BME280;3707;43.618;25.342;2022-09-09T06:28:54;100090.19;;;27.24;52.94
7333;BME280;3707;43.618;25.342;2022-09-09T06:31:24;100065.91;;;27.30;52.18
7333;BME280;3707;43.618;25.342;2022-09-09T06:33:52;100085.06;;;27.53;52.33
7333;BME280;3707;43.618;25.342;2022-09-09T06:36:22;100091.44;;;27.67;52.05
7333;BME280;3707;43.618;25.342;2022-09-09T06:38:49;100102.00;;;27.84;51.85
7333;BME280;3707;43.618;25.342;2022-09-09T06:41:17;100102.94;;;27.83;51.79
7333;BME280;3707;43.618;25.342;2022-09-09T06:43:46;100077.69;;;27.74;51.85
7333;BME280;3707;43.618;25.342;2022-09-09T06:46:14;100095.56;;;27.88;52.08
7333;BME280;3707;43.618;25.342;2022-09-09T06:48:42;100091.19;;;28.02;51.67
7333;BME280;3707;43.618;25.342;2022-09-09T06:51:12;100106.81;;;28.40;50.42
7333;BME280;3707;43.618;25.342;2022-09-09T06:53:41;100106.00;;;28.24;54.41
7333;BME280;3707;43.618;25.342;2022-09-09T06:56:19;100077.28;;;28.13;55.51
7333;BME280;3707;43.618;25.342;2022-09-09T06:58:49;100101.53;;;28.54;54.29
7333;BME280;3707;43.618;25.342;2022-09-09T07:01:19;100101.28;;;28.58;54.70
7333;BME280;3707;43.618;25.342;2022-09-09T07:03:47;100104.13;;;28.71;52.80
7333;BME280;3707;43.618;25.342;2022-09-09T07:06:16;100051.06;;;28.65;52.05
7333;BME280;3707;43.618;25.342;2022-09-09T07:08:48;100106.88;;;28.99;52.03
7333;BME280;3707;43.618;25.342;2022-09-09T07:11:15;100070.97;;;28.75;51.95
7333;BME280;3707;43.618;25.342;2022-09-09T07:13:42;100112.94;;;28.87;50.53
7333;BME280;3707;43.618;25.342;2022-09-09T07:16:12;100114.56;;;29.04;51.37
7333;BME280;3707;43.618;25.342;2022-09-09T07:18:39;100098.53;;;28.90;49.83
7333;BME280;3707;43.618;25.342;2022-09-09T07:21:07;100115.78;;;29.14;50.29
7333;BME280;3707;43.618;25.342;2022-09-09T07:23:35;100116.09;;;29.38;50.30
7333;BME280;3707;43.618;25.342;2022-09-09T07:26:02;100124.84;;;29.68;49.80
7333;BME280;3707;43.618;25.342;2022-09-09T07:28:33;100137.19;;;29.71;48.98
7333;BME280;3707;43.618;25.342;2022-09-09T07:31:01;100133.94;;;29.80;48.35
7333;BME280;3707;43.618;25.342;2022-09-09T07:33:31;100126.69;;;29.96;48.33
7333;BME280;3707;43.618;25.342;2022-09-09T07:36:03;100126.38;;;30.00;47.81
7333;BME280;3707;43.618;25.342;2022-09-09T07:38:30;100127.66;;;29.67;48.59
7333;BME280;3707;43.618;25.342;2022-09-09T07:41:03;100114.00;;;29.85;47.52
7333;BME280;3707;43.618;25.342;2022-09-09T07:43:31;100123.69;;;30.00;47.59
7333;BME280;3707;43.618;25.342;2022-09-09T07:45:59;100121.16;;;30.26;48.26
7333;BME280;3707;43.618;25.342;2022-09-09T07:48:26;100121.81;;;29.74;47.53
7333;BME280;3707;43.618;25.342;2022-09-09T07:51:05;100124.78;;;29.70;47.51
7333;BME280;3707;43.618;25.342;2022-09-09T07:53:32;100116.06;;;29.80;48.03
7333;BME280;3707;43.618;25.342;2022-09-09T07:56:03;100145.38;;;30.10;47.94
7333;BME280;3707;43.618;25.342;2022-09-09T07:58:29;100125.72;;;29.69;48.78
7333;BME280;3707;43.618;25.342;2022-09-09T08:00:56;100131.44;;;29.77;49.36
7333;BME280;3707;43.618;25.342;2022-09-09T08:03:24;100139.63;;;30.16;49.12
7333;BME280;3707;43.618;25.342;2022-09-09T08:05:50;100135.47;;;30.39;49.58
7333;BME280;3707;43.618;25.342;2022-09-09T08:08:19;100131.47;;;30.59;48.96
7333;BME280;3707;43.618;25.342;2022-09-09T08:10:46;100115.47;;;30.71;49.57
7333;BME280;3707;43.618;25.342;2022-09-09T08:13:12;100102.19;;;30.82;48.74
7333;BME280;3707;43.618;25.342;2022-09-09T08:15:39;100108.47;;;31.08;48.66
7333;BME280;3707;43.618;25.342;2022-09-09T08:18:06;100108.66;;;30.92;47.90
7333;BME280;3707;43.618;25.342;2022-09-09T08:20:36;100113.41;;;31.02;48.72
7333;BME280;3707;43.618;25.342;2022-09-09T08:23:03;100113.44;;;31.14;48.75
7333;BME280;3707;43.618;25.342;2022-09-09T08:25:31;100105.25;;;31.41;48.23
7333;BME280;3707;43.618;25.342;2022-09-09T08:28:00;100089.53;;;31.24;48.14
7333;BME280;3707;43.618;25.342;2022-09-09T08:30:26;100095.50;;;31.15;47.37
7333;BME280;3707;43.618;25.342;2022-09-09T08:32:53;100094.75;;;31.25;47.19
7333;BME280;3707;43.618;25.342;2022-09-09T08:35:20;100092.19;;;31.36;47.03
7333;BME280;3707;43.618;25.342;2022-09-09T08:37:47;100087.47;;;31.65;47.04
7333;BME280;3707;43.618;25.342;2022-09-09T08:40:22;100082.09;;;32.02;45.71
7333;BME280;3707;43.618;25.342;2022-09-09T08:42:56;100086.81;;;32.11;44.81
7333;BME280;3707;43.618;25.342;2022-09-09T08:45:30;100082.25;;;32.24;43.28
7333;BME280;3707;43.618;25.342;2022-09-09T08:48:09;100065.00;;;32.39;42.72
7333;BME280;3707;43.618;25.342;2022-09-09T08:50:40;100075.13;;;32.59;42.19
7333;BME280;3707;43.618;25.342;2022-09-09T08:53:11;100068.59;;;32.74;42.67
7333;BME280;3707;43.618;25.342;2022-09-09T08:55:45;100048.47;;;32.56;41.51
7333;BME280;3707;43.618;25.342;2022-09-09T08:58:17;100038.19;;;32.50;41.31
7333;BME280;3707;43.618;25.342;2022-09-09T09:03:50;100083.78;;;33.09;40.80
7333;BME280;3707;43.618;25.342;2022-09-09T09:06:26;100079.34;;;33.20;40.31
7333;BME280;3707;43.618;25.342;2022-09-09T09:09:05;100075.78;;;33.20;38.95
7333;BME280;3707;43.618;25.342;2022-09-09T09:11:36;100084.22;;;33.26;39.43
7333;BME280;3707;43.618;25.342;2022-09-09T09:14:09;100087.16;;;33.68;39.06
7333;BME280;3707;43.618;25.342;2022-09-09T09:16:42;100067.34;;;33.47;38.35
7333;BME280;3707;43.618;25.342;2022-09-09T09:19:15;100076.03;;;33.61;38.40
7333;BME280;3707;43.618;25.342;2022-09-09T09:21:44;100076.53;;;33.55;38.07
7333;BME280;3707;43.618;25.342;2022-09-09T09:24:18;100071.03;;;33.68;38.13
7333;BME280;3707;43.618;25.342;2022-09-09T09:26:46;100063.28;;;33.85;38.32
7333;BME280;3707;43.618;25.342;2022-09-09T09:29:16;100043.53;;;33.64;37.19
7333;BME280;3707;43.618;25.342;2022-09-09T09:31:45;100059.66;;;33.64;38.59
7333;BME280;3707;43.618;25.342;2022-09-09T09:34:14;100058.91;;;33.84;38.42
7333;BME280;3707;43.618;25.342;2022-09-09T09:36:45;100059.59;;;33.98;38.19
7333;BME280;3707;43.618;25.342;2022-09-09T09:39:23;100054.63;;;33.82;37.85
7333;BME280;3707;43.618;25.342;2022-09-09T09:41:51;100054.47;;;34.06;38.48
7333;BME280;3707;43.618;25.342;2022-09-09T09:44:25;100056.47;;;33.93;37.53
7333;BME280;3707;43.618;25.342;2022-09-09T09:46:53;100060.41;;;33.77;37.99
7333;BME280;3707;43.618;25.342;2022-09-09T09:49:20;100059.09;;;34.04;38.32
7333;BME280;3707;43.618;25.342;2022-09-09T09:51:46;100063.44;;;33.51;39.11
7333;BME280;3707;43.618;25.342;2022-09-09T09:54:20;100063.69;;;33.48;39.13
7333;BME280;3707;43.618;25.342;2022-09-09T09:56:49;100061.25;;;33.56;39.03
7333;BME280;3707;43.618;25.342;2022-09-09T09:59:33;100058.19;;;33.60;39.70
7333;BME280;3707;43.618;25.342;2022-09-09T10:02:14;100040.09;;;34.27;38.72
7333;BME280;3707;43.618;25.342;2022-09-09T10:04:42;100051.22;;;34.55;38.17
7333;BME280;3707;43.618;25.342;2022-09-09T10:07:11;100054.97;;;34.74;36.87
7333;BME280;3707;43.618;25.342;2022-09-09T10:09:38;100052.09;;;34.55;36.91
7333;BME280;3707;43.618;25.342;2022-09-09T10:12:10;100050.56;;;34.73;37.41
7333;BME280;3707;43.618;25.342;2022-09-09T10:14:58;100050.56;;;34.73;37.91
7333;BME280;3707;43.618;25.342;2022-09-09T10:17:32;100053.63;;;34.69;36.63
7333;BME280;3707;43.618;25.342;2022-09-09T10:20:16;100016.09;;;34.56;36.44
7333;BME280;3707;43.618;25.342;2022-09-09T10:22:50;100048.56;;;34.12;36.33
7333;BME280;3707;43.618;25.342;2022-09-09T10:25:26;100023.00;;;34.17;36.88
7333;BME280;3707;43.618;25.342;2022-09-09T10:28:18;100046.81;;;34.54;35.97
7333;BME280;3707;43.618;25.342;2022-09-09T10:30:59;100032.59;;;34.83;35.63
7333;BME280;3707;43.618;25.342;2022-09-09T10:33:39;100044.88;;;34.76;35.74
7333;BME280;3707;43.618;25.342;2022-09-09T10:36:14;100022.94;;;34.28;36.31
7333;BME280;3707;43.618;25.342;2022-09-09T10:38:46;100019.72;;;34.14;36.30
7333;BME280;3707;43.618;25.342;2022-09-09T10:41:18;100037.06;;;34.21;36.80
7333;BME280;3707;43.618;25.342;2022-09-09T10:44:12;100042.00;;;34.68;35.95
7333;BME280;3707;43.618;25.342;2022-09-09T10:46:52;100026.94;;;34.87;36.13
7333;BME280;3707;43.618;25.342;2022-09-09T10:49:31;100028.66;;;34.88;35.81
7333;BME280;3707;43.618;25.342;2022-09-09T10:52:09;100037.38;;;35.01;35.48
7333;BME280;3707;43.618;25.342;2022-09-09T10:54:48;100022.09;;;34.80;36.26
7333;BME280;3707;43.618;25.342;2022-09-09T10:57:27;100035.63;;;34.90;35.82
7333;BME280;3707;43.618;25.342;2022-09-09T10:59:59;100039.09;;;35.02;35.79
7333;BME280;3707;43.618;25.342;2022-09-09T11:02:32;100030.81;;;35.45;34.78
7333;BME280;3707;43.618;25.342;2022-09-09T11:05:04;100027.72;;;35.59;35.38
7333;BME280;3707;43.618;25.342;2022-09-09T11:07:35;100029.66;;;35.47;35.66
7333;BME280;3707;43.618;25.342;2022-09-09T11:10:12;100033.13;;;35.59;34.91
7333;BME280;3707;43.618;25.342;2022-09-09T11:12:44;100035.38;;;35.54;34.94
7333;BME280;3707;43.618;25.342;2022-09-09T11:15:17;100026.88;;;34.98;35.46
7333;BME280;3707;43.618;25.342;2022-09-09T11:17:50;100035.16;;;35.66;35.64
7333;BME280;3707;43.618;25.342;2022-09-09T11:20:20;100028.66;;;35.78;38.90
7333;BME280;3707;43.618;25.342;2022-09-09T11:22:49;100034.03;;;35.78;34.71
7333;BME280;3707;43.618;25.342;2022-09-09T11:25:22;100017.03;;;36.07;34.49
7333;BME280;3707;43.618;25.342;2022-09-09T11:28:05;100029.28;;;36.11;33.79
7333;BME280;3707;43.618;25.342;2022-09-09T11:30:46;100025.13;;;36.07;34.32
7333;BME280;3707;43.618;25.342;2022-09-09T11:42:06;100012.03;;;35.64;34.54
7333;BME280;3707;43.618;25.342;2022-09-09T11:44:34;100009.97;;;35.56;35.33
7333;BME280;3707;43.618;25.342;2022-09-09T11:47:00;100008.53;;;35.92;34.76
7333;BME280;3707;43.618;25.342;2022-09-09T11:49:39;100007.28;;;36.35;34.64
7333;BME280;3707;43.618;25.342;2022-09-09T11:52:18;100009.09;;;36.72;34.37
7333;BME280;3707;43.618;25.342;2022-09-09T11:54:48;100018.69;;;37.13;33.25
7333;BME280;3707;43.618;25.342;2022-09-09T11:57:26;100007.66;;;36.88;33.09
7333;BME280;3707;43.618;25.342;2022-09-09T11:59:57;99967.03;;;36.41;33.20
7333;BME280;3707;43.618;25.342;2022-09-09T12:02:27;99997.16;;;36.46;32.90
7333;BME280;3707;43.618;25.342;2022-09-09T12:05:02;99979.97;;;36.38;33.54
7333;BME280;3707;43.618;25.342;2022-09-09T12:07:36;99994.75;;;36.62;34.16
7333;BME280;3707;43.618;25.342;2022-09-09T12:10:20;99984.13;;;36.13;34.00
7333;BME280;3707;43.618;25.342;2022-09-09T12:12:49;99968.47;;;36.45;33.65
7333;BME280;3707;43.618;25.342;2022-09-09T12:15:33;99978.69;;;36.70;33.27
7333;BME280;3707;43.618;25.342;2022-09-09T12:18:00;99979.00;;;37.04;33.27
7333;BME280;3707;43.618;25.342;2022-09-09T12:20:34;99971.00;;;37.40;32.57
7333;BME280;3707;43.618;25.342;2022-09-09T12:23:23;99978.63;;;37.27;32.88
7333;BME280;3707;43.618;25.342;2022-09-09T12:26:26;99969.34;;;37.02;33.43
7333;BME280;3707;43.618;25.342;2022-09-09T12:29:01;99960.81;;;36.12;33.83
7333;BME280;3707;43.618;25.342;2022-09-09T12:31:35;99966.63;;;35.48;35.13
7333;BME280;3707;43.618;25.342;2022-09-09T12:34:10;99952.81;;;35.82;35.81
7333;BME280;3707;43.618;25.342;2022-09-09T12:36:40;99935.81;;;35.11;35.90
7333;BME280;3707;43.618;25.342;2022-09-09T12:39:16;99968.16;;;35.01;37.06
7333;BME280;3707;43.618;25.342;2022-09-09T12:41:51;99941.59;;;34.66;37.61
7333;BME280;3707;43.618;25.342;2022-09-09T12:44:21;99959.78;;;34.32;37.98
7333;BME280;3707;43.618;25.342;2022-09-09T12:46:49;99935.38;;;33.93;38.83
7333;BME280;3707;43.618;25.342;2022-09-09T12:49:28;99956.97;;;34.34;38.89
7333;BME280;3707;43.618;25.342;2022-09-09T12:51:57;99959.28;;;34.07;39.74
7333;BME280;3707;43.618;25.342;2022-09-09T12:54:25;99964.38;;;34.21;39.54
7333;BME280;3707;43.618;25.342;2022-09-09T12:56:53;99961.31;;;33.82;40.45
7333;BME280;3707;43.618;25.342;2022-09-09T12:59:24;99957.88;;;33.92;41.13
7333;BME280;3707;43.618;25.342;2022-09-09T13:01:57;99957.66;;;33.61;41.81
7333;BME280;3707;43.618;25.342;2022-09-09T13:04:25;99965.16;;;33.69;41.53
7333;BME280;3707;43.618;25.342;2022-09-09T13:06:52;99957.22;;;33.56;41.85
7333;BME280;3707;43.618;25.342;2022-09-09T13:09:20;99955.31;;;33.79;41.89
7333;BME280;3707;43.618;25.342;2022-09-09T13:11:49;99953.19;;;33.39;42.55
7333;BME280;3707;43.618;25.342;2022-09-09T13:14:19;99957.25;;;33.34;42.77
7333;BME280;3707;43.618;25.342;2022-09-09T13:16:55;99955.53;;;33.44;42.50
7333;BME280;3707;43.618;25.342;2022-09-09T13:19:23;99959.31;;;32.86;42.94
7333;BME280;3707;43.618;25.342;2022-09-09T13:21:53;99949.41;;;32.86;43.35
7333;BME280;3707;43.618;25.342;2022-09-09T13:24:29;99953.47;;;33.14;43.16
7333;BME280;3707;43.618;25.342;2022-09-09T13:26:57;99952.34;;;32.95;43.80
7333;BME280;3707;43.618;25.342;2022-09-09T13:29:25;99951.47;;;32.72;43.75
7333;BME280;3707;43.618;25.342;2022-09-09T13:31:53;99939.06;;;32.71;44.04
7333;BME280;3707;43.618;25.342;2022-09-09T13:34:28;99939.25;;;32.57;43.88